createdAt,value
2018-11-26T00:00:15.593Z,99940.13
2018-11-26T00:01:19.184Z,99940.47
2018-11-26T00:02:22.594Z,99936.69
2018-11-26T00:03:25.997Z,99933.13
2018-11-26T00:04:29.412Z,99935.65
2018-11-26T00:05:32.839Z,99936.80
2018-11-26T00:06:36.257Z,99931.30
2018-11-26T00:07:39.698Z,99931.18
2018-11-26T00:08:43.088Z,99930.84
2018-11-26T00:09:46.583Z,99931.80
2018-11-26T00:11:59.409Z,99924.23
2018-11-26T00:13:02.977Z,99922.89
2018-11-26T00:14:06.489Z,99928.39
2018-11-26T00:15:09.930Z,99923.35
2018-11-26T00:16:13.303Z,99930.92
2018-11-26T00:17:16.724Z,99924.04
2018-11-26T00:18:20.142Z,99928.66
2018-11-26T00:19:23.613Z,99924.53
2018-11-26T00:20:27.051Z,99931.64
2018-11-26T00:21:30.449Z,99924.76
2018-11-26T00:22:33.885Z,99920.75
2018-11-26T00:23:37.436Z,99924.30
2018-11-26T00:24:40.857Z,99925.41
2018-11-26T00:25:44.349Z,99921.55
2018-11-26T00:26:47.797Z,99923.95
2018-11-26T00:27:51.178Z,99921.78
2018-11-26T00:28:54.701Z,99925.91
2018-11-26T00:29:58.129Z,99925.91
2018-11-26T00:31:01.628Z,99921.78
2018-11-26T00:32:05.022Z,99925.41
2018-11-26T00:33:08.444Z,99927.05
2018-11-26T00:34:11.864Z,99924.04
2018-11-26T00:35:15.328Z,99926.56
2018-11-26T00:36:18.768Z,99922.55
2018-11-26T00:37:22.208Z,99920.38
2018-11-26T00:38:25.617Z,99917.16
2018-11-26T00:39:29.143Z,99918.53
2018-11-26T00:40:32.603Z,99918.08
2018-11-26T00:41:36.023Z,99917.59
2018-11-26T00:42:39.541Z,99923.09
2018-11-26T00:43:42.959Z,99920.11
2018-11-26T00:44:46.373Z,99924.58
2018-11-26T00:45:49.837Z,99924.08
2018-11-26T00:46:53.260Z,99927.89
2018-11-26T00:47:56.837Z,99925.72
2018-11-26T00:49:00.235Z,99924.08
2018-11-26T00:50:03.740Z,99920.30
2018-11-26T00:51:07.728Z,99924.20
2018-11-26T00:52:11.140Z,99923.39
2018-11-26T00:53:15.023Z,99919.38
2018-11-26T00:54:18.640Z,99920.64
2018-11-26T00:55:22.108Z,99922.82
2018-11-26T00:56:25.534Z,99914.80
2018-11-26T00:57:28.964Z,99912.77
2018-11-26T00:58:32.419Z,99912.89
2018-11-26T00:59:35.825Z,99908.45
2018-11-26T01:00:39.278Z,99909.70
2018-11-26T01:01:42.827Z,99908.45
2018-11-26T01:02:46.401Z,99906.99
2018-11-26T01:03:49.825Z,99910.28
2018-11-26T01:04:53.198Z,99913.53
2018-11-26T01:05:56.712Z,99912.61
2018-11-26T01:07:00.143Z,99914.21
2018-11-26T01:08:03.861Z,99915.02
2018-11-26T01:09:08.546Z,99908.14
2018-11-26T01:10:11.965Z,99903.21
2018-11-26T01:11:15.605Z,99913.06
2018-11-26T01:12:19.006Z,99905.39
2018-11-26T01:13:22.428Z,99907.33
2018-11-26T01:14:25.948Z,99905.50
2018-11-26T01:15:29.475Z,99907.68
2018-11-26T01:16:32.949Z,99906.30
2018-11-26T01:17:36.345Z,99908.83
2018-11-26T01:18:39.756Z,99906.65
2018-11-26T01:19:43.176Z,99912.50
2018-11-26T01:20:46.615Z,99920.75
2018-11-26T01:21:50.049Z,99916.13
2018-11-26T01:22:53.455Z,99925.19
2018-11-26T01:23:56.837Z,99922.20
2018-11-26T01:25:00.251Z,99921.75
2018-11-26T01:26:03.785Z,99917.39
2018-11-26T01:27:07.280Z,99920.14
2018-11-26T01:28:10.667Z,99919.11
2018-11-26T01:29:14.054Z,99915.33
2018-11-26T01:30:17.549Z,99912.58
2018-11-26T01:31:21.129Z,99915.33
2018-11-26T01:32:24.522Z,99913.80
2018-11-26T01:33:27.955Z,99911.63
2018-11-26T01:34:31.633Z,99915.75
2018-11-26T01:35:35.245Z,99915.29
2018-11-26T01:36:38.637Z,99913.66
2018-11-26T01:37:42.092Z,99918.13
2018-11-26T01:38:45.476Z,99923.97
2018-11-26T01:39:48.882Z,99924.65
2018-11-26T01:40:52.875Z,99922.70
2018-11-26T01:41:56.289Z,99917.77
2018-11-26T01:42:59.739Z,99918.00
2018-11-26T01:44:03.217Z,99926.03
2018-11-26T01:45:07.093Z,99919.88
2018-11-26T01:46:10.541Z,99920.68
2018-11-26T01:47:14.039Z,99927.47
2018-11-26T01:48:17.537Z,99923.23
2018-11-26T01:49:20.983Z,99922.89
2018-11-26T01:50:24.385Z,99926.33
2018-11-26T01:51:27.784Z,99916.70
2018-11-26T01:52:31.301Z,99919.45
2018-11-26T01:53:34.682Z,99926.56
2018-11-26T01:54:38.120Z,99924.30
2018-11-26T01:55:41.595Z,99928.42
2018-11-26T01:56:45.063Z,99920.75
2018-11-26T01:57:48.881Z,99926.70
2018-11-26T01:58:52.331Z,99924.30
2018-11-26T01:59:55.745Z,99921.78
2018-11-26T02:00:59.336Z,99930.92
2018-11-26T02:02:02.829Z,99929.00
2018-11-26T02:03:06.723Z,99930.11
2018-11-26T02:04:10.300Z,99934.24
2018-11-26T02:05:13.776Z,99935.61
2018-11-26T02:06:17.249Z,99930.92
2018-11-26T02:07:20.736Z,99933.44
2018-11-26T02:08:24.135Z,99929.08
2018-11-26T02:09:27.583Z,99931.61
2018-11-26T02:10:31.085Z,99932.17
2018-11-26T02:11:34.594Z,99935.27
2018-11-26T02:12:38.042Z,99932.29
2018-11-26T02:13:41.427Z,99924.03
2018-11-26T02:14:44.877Z,99927.36
2018-11-26T02:15:48.266Z,99924.37
2018-11-26T02:16:51.711Z,99928.27
2018-11-26T02:17:55.252Z,99923.09
2018-11-26T02:18:58.725Z,99924.23
2018-11-26T02:20:02.129Z,99929.27
2018-11-26T02:21:05.821Z,99927.66
2018-11-26T02:22:09.389Z,99920.53
2018-11-26T02:23:12.955Z,99920.88
2018-11-26T02:24:16.388Z,99932.22
2018-11-26T02:25:19.824Z,99930.03
2018-11-26T02:26:23.309Z,99927.40
2018-11-26T02:27:26.683Z,99923.84
2018-11-26T02:28:30.125Z,99926.94
2018-11-26T02:29:33.813Z,99921.67
2018-11-26T02:30:37.428Z,99923.50
2018-11-26T02:31:40.834Z,99919.84
2018-11-26T02:32:44.282Z,99921.91
2018-11-26T02:33:47.800Z,99916.09
2018-11-26T02:34:51.233Z,99919.88
2018-11-26T02:35:54.664Z,99916.21
2018-11-26T02:36:58.174Z,99925.18
2018-11-26T02:38:01.616Z,99918.42
2018-11-26T02:39:06.156Z,99912.34
2018-11-26T02:40:13.361Z,99912.58
2018-11-26T02:41:16.863Z,99922.20
2018-11-26T02:42:20.451Z,99916.62
2018-11-26T02:43:23.861Z,99914.67
2018-11-26T02:44:27.302Z,99916.84
2018-11-26T02:45:30.875Z,99915.70
2018-11-26T02:46:34.345Z,99912.15
2018-11-26T02:47:37.781Z,99915.94
2018-11-26T02:48:41.244Z,99910.77
2018-11-26T02:49:44.774Z,99912.15
2018-11-26T02:50:48.257Z,99923.73
2018-11-26T02:51:51.679Z,99916.84
2018-11-26T02:52:55.119Z,99916.05
2018-11-26T02:53:58.544Z,99914.41
2018-11-26T02:55:02.024Z,99915.79
2018-11-26T02:56:05.757Z,99912.58
2018-11-26T02:57:09.187Z,99918.88
2018-11-26T02:58:12.601Z,99913.15
2018-11-26T02:59:16.057Z,99908.91
2018-11-26T03:00:19.701Z,99910.28
2018-11-26T03:01:23.385Z,99915.55
2018-11-26T03:02:26.857Z,99915.09
2018-11-26T03:03:30.314Z,99916.21
2018-11-26T03:04:33.731Z,99920.11
2018-11-26T03:05:37.144Z,99920.68
2018-11-26T03:06:40.612Z,99919.64
2018-11-26T03:07:44.029Z,99932.02
2018-11-26T03:08:47.794Z,99930.95
2018-11-26T03:09:51.236Z,99924.42
2018-11-26T03:10:54.788Z,99929.70
2018-11-26T03:11:58.216Z,99925.68
2018-11-26T03:13:01.712Z,99930.38
2018-11-26T03:14:05.127Z,99925.56
2018-11-26T03:15:11.394Z,99925.80
2018-11-26T03:16:14.918Z,99931.30
2018-11-26T03:17:18.408Z,99924.53
2018-11-26T03:18:21.897Z,99925.57
2018-11-26T03:19:25.329Z,99931.53
2018-11-26T03:20:28.744Z,99928.47
2018-11-26T03:21:32.312Z,99926.98
2018-11-26T03:22:35.765Z,99926.98
2018-11-26T03:23:39.729Z,99923.58
2018-11-26T03:24:43.173Z,99930.11
2018-11-26T03:25:46.646Z,99932.06
2018-11-26T03:26:50.127Z,99930.91
2018-11-26T03:27:53.573Z,99930.34
2018-11-26T03:28:57.037Z,99928.85
2018-11-26T03:30:00.629Z,99923.92
2018-11-26T03:31:04.583Z,99926.91
2018-11-26T03:32:08.043Z,99922.55
2018-11-26T03:33:11.670Z,99928.05
2018-11-26T03:34:15.165Z,99926.45
2018-11-26T03:35:18.895Z,99927.48
2018-11-26T03:36:22.310Z,99927.48
2018-11-26T03:37:25.733Z,99924.50
2018-11-26T03:39:01.257Z,99921.52
2018-11-26T03:40:08.969Z,99926.78
2018-11-26T03:41:12.401Z,99927.93
2018-11-26T03:42:16.615Z,99929.31
2018-11-26T03:43:20.303Z,99920.25
2018-11-26T03:44:23.744Z,99923.89
2018-11-26T03:45:27.354Z,99931.60
2018-11-26T03:46:30.762Z,99921.71
2018-11-26T03:47:34.207Z,99921.48
2018-11-26T03:48:37.713Z,99933.40
2018-11-26T03:49:41.279Z,99933.40
2018-11-26T03:50:44.658Z,99929.58
2018-11-26T03:51:48.064Z,99931.53
2018-11-26T03:52:51.491Z,99934.85
2018-11-26T03:53:55.109Z,99936.80
2018-11-26T03:54:58.555Z,99936.80
2018-11-26T03:56:01.962Z,99935.20
2018-11-26T03:57:05.795Z,99938.52
2018-11-26T03:58:09.308Z,99934.50
2018-11-26T03:59:12.737Z,99934.27
2018-11-26T04:00:17.236Z,99937.36
2018-11-26T04:01:20.645Z,99936.80
2018-11-26T04:02:24.050Z,99942.30
2018-11-26T04:03:27.529Z,99940.34
2018-11-26T04:04:30.927Z,99939.44
2018-11-26T04:05:34.367Z,99941.96
2018-11-26T04:06:37.824Z,99939.13
2018-11-26T04:07:41.607Z,99937.41
2018-11-26T04:08:45.091Z,99946.95
2018-11-26T04:09:48.626Z,99935.84
2018-11-26T04:10:52.037Z,99933.89
2018-11-26T04:11:55.439Z,99936.19
2018-11-26T04:12:58.908Z,99938.28
2018-11-26T04:14:02.326Z,99937.59
2018-11-26T04:15:06.911Z,99938.17
2018-11-26T04:16:10.436Z,99940.12
2018-11-26T04:17:13.879Z,99944.25
2018-11-26T04:18:17.300Z,99935.77
2018-11-26T04:19:20.780Z,99940.34
2018-11-26T04:20:24.466Z,99941.50
2018-11-26T04:21:27.891Z,99938.74
2018-11-26T04:22:31.302Z,99938.52
2018-11-26T04:23:34.889Z,99943.22
2018-11-26T04:24:38.326Z,99942.19
2018-11-26T04:25:41.806Z,99943.30
2018-11-26T04:26:45.428Z,99937.56
2018-11-26T04:27:48.880Z,99940.09
2018-11-26T04:28:52.381Z,99941.23
2018-11-26T04:29:55.793Z,99938.25
2018-11-26T04:30:59.245Z,99939.40
2018-11-26T04:32:02.976Z,99939.40
2018-11-26T04:33:06.625Z,99939.40
2018-11-26T04:34:10.095Z,99938.13
2018-11-26T04:35:13.553Z,99941.77
2018-11-26T04:36:16.969Z,99939.94
2018-11-26T04:37:20.397Z,99943.25
2018-11-26T04:38:24.137Z,99940.27
2018-11-26T04:39:27.547Z,99934.77
2018-11-26T04:40:30.952Z,99938.41
2018-11-26T04:41:34.446Z,99936.23
2018-11-26T04:42:38.252Z,99937.14
2018-11-26T04:43:41.747Z,99940.70
2018-11-26T04:44:45.364Z,99930.38
2018-11-26T04:45:48.869Z,99932.33
2018-11-26T04:46:53.955Z,99931.87
2018-11-26T04:47:57.422Z,99929.45
2018-11-26T04:49:00.853Z,99925.33
2018-11-26T04:50:04.841Z,99925.80
2018-11-26T04:51:08.264Z,99924.08
2018-11-26T04:52:11.780Z,99924.20
2018-11-26T04:53:15.197Z,99922.82
2018-11-26T04:54:19.037Z,99927.66
2018-11-26T04:55:22.435Z,99924.72
2018-11-26T04:56:25.912Z,99930.69
2018-11-26T04:57:29.290Z,99928.39
2018-11-26T04:58:32.716Z,99928.85
2018-11-26T04:59:36.086Z,99927.48
2018-11-26T05:00:39.575Z,99921.86
2018-11-26T05:01:43.129Z,99926.56
2018-11-26T05:02:46.551Z,99922.66
2018-11-26T05:03:49.990Z,99919.91
2018-11-26T05:04:53.424Z,99922.66
2018-11-26T05:05:56.950Z,99919.69
2018-11-26T05:07:00.349Z,99925.19
2018-11-26T05:08:03.904Z,99919.45
2018-11-26T05:09:09.576Z,99923.81
2018-11-26T05:10:14.477Z,99919.45
2018-11-26T05:11:17.981Z,99912.58
2018-11-26T05:12:21.401Z,99913.15
2018-11-26T05:13:24.765Z,99912.12
2018-11-26T05:14:28.169Z,99916.47
2018-11-26T05:15:31.592Z,99917.05
2018-11-26T05:16:34.980Z,99915.21
2018-11-26T05:17:38.363Z,99919.91
2018-11-26T05:18:41.818Z,99919.68
2018-11-26T05:20:47.726Z,99922.44
2018-11-26T05:21:51.143Z,99923.89
2018-11-26T05:22:54.553Z,99921.97
2018-11-26T05:23:57.984Z,99921.71
2018-11-26T05:25:01.429Z,99921.48
2018-11-26T05:26:05.223Z,99917.13
2018-11-26T05:27:08.614Z,99916.66
2018-11-26T05:28:12.032Z,99915.03
2018-11-26T05:29:15.460Z,99914.00
2018-11-26T05:30:19.066Z,99917.09
2018-11-26T05:31:22.458Z,99912.16
2018-11-26T05:32:25.848Z,99912.50
2018-11-26T05:33:29.240Z,99915.72
2018-11-26T05:34:32.675Z,99915.72
2018-11-26T05:35:36.231Z,99914.68
2018-11-26T05:36:39.788Z,99917.32
2018-11-26T05:37:43.248Z,99915.03
2018-11-26T05:38:47.337Z,99917.20
2018-11-26T05:39:50.800Z,99913.91
2018-11-26T05:40:54.244Z,99918.05
2018-11-26T05:41:57.680Z,99918.73
2018-11-26T05:43:01.085Z,99923.09
2018-11-26T05:44:04.606Z,99917.59
2018-11-26T05:45:15.865Z,99917.27
2018-11-26T05:46:19.400Z,99912.00
2018-11-26T05:47:22.817Z,99918.30
2018-11-26T05:48:26.225Z,99923.13
2018-11-26T05:49:29.649Z,99917.05
2018-11-26T05:50:33.148Z,99916.70
2018-11-26T05:51:36.564Z,99918.66
2018-11-26T05:52:40.584Z,99917.73
2018-11-26T05:53:44.059Z,99919.69
2018-11-26T05:54:47.470Z,99916.94
2018-11-26T05:55:50.831Z,99919.11
2018-11-26T05:56:54.370Z,99916.94
2018-11-26T05:57:57.774Z,99911.43
2018-11-26T05:59:01.294Z,99911.43
2018-11-26T06:00:06.403Z,99914.33
2018-11-26T06:01:09.859Z,99911.00
2018-11-26T06:02:13.274Z,99911.00
2018-11-26T06:03:17.192Z,99912.95
2018-11-26T06:04:20.820Z,99916.28
2018-11-26T06:05:24.269Z,99914.67
2018-11-26T06:06:27.683Z,99922.92
2018-11-26T06:07:31.129Z,99921.28
2018-11-26T06:08:34.568Z,99925.98
2018-11-26T06:09:38.009Z,99924.95
2018-11-26T06:10:41.640Z,99920.14
2018-11-26T06:11:45.045Z,99921.28
2018-11-26T06:12:48.551Z,99926.22
2018-11-26T06:13:52.023Z,99919.56
2018-11-26T06:14:55.424Z,99920.59
2018-11-26T06:15:58.840Z,99925.91
2018-11-26T06:17:02.251Z,99925.22
2018-11-26T06:18:05.959Z,99923.84
2018-11-26T06:19:09.361Z,99926.71
2018-11-26T06:20:13.533Z,99922.50
2018-11-26T06:21:16.956Z,99922.73
2018-11-26T06:22:20.400Z,99927.42
2018-11-26T06:23:23.927Z,99919.05
2018-11-26T06:24:27.311Z,99922.95
2018-11-26T06:25:30.727Z,99921.34
2018-11-26T06:26:34.157Z,99923.98
2018-11-26T06:27:37.575Z,99925.02
2018-11-26T06:28:41.035Z,99926.50
2018-11-26T06:29:44.479Z,99924.55
2018-11-26T06:30:47.869Z,99925.93
2018-11-26T06:31:51.280Z,99928.11
2018-11-26T06:32:54.688Z,99930.63
2018-11-26T06:33:58.117Z,99935.34
2018-11-26T06:35:01.500Z,99937.63
2018-11-26T06:36:05.308Z,99936.25
2018-11-26T06:37:08.772Z,99937.74
2018-11-26T06:38:12.202Z,99941.30
2018-11-26T06:39:15.905Z,99942.22
2018-11-26T06:40:19.436Z,99944.97
2018-11-26T06:41:22.948Z,99944.73
2018-11-26T06:42:26.339Z,99948.41
2018-11-26T06:43:29.797Z,99947.92
2018-11-26T06:44:33.196Z,99949.18
2018-11-26T06:45:36.604Z,99947.00
2018-11-26T06:46:39.991Z,99950.90
2018-11-26T06:47:43.458Z,99957.78
2018-11-26T06:48:47.057Z,99956.75
2018-11-26T06:49:50.454Z,99956.86
2018-11-26T06:50:54.025Z,99960.52
2018-11-26T06:51:57.386Z,99958.69
2018-11-26T06:53:00.790Z,99960.06
2018-11-26T06:54:04.452Z,99961.18
2018-11-26T06:55:09.986Z,99963.47
2018-11-26T06:56:13.447Z,99963.93
2018-11-26T06:57:17.040Z,99963.05
2018-11-26T06:58:20.657Z,99969.36
2018-11-26T06:59:24.083Z,99969.47
2018-11-26T07:00:27.650Z,99972.11
2018-11-26T07:01:31.134Z,99971.69
2018-11-26T07:02:34.707Z,99975.70
2018-11-26T07:03:38.149Z,99972.03
2018-11-26T07:04:41.613Z,99978.22
2018-11-26T07:05:45.064Z,99971.11
2018-11-26T07:06:48.492Z,99978.68
2018-11-26T07:07:52.069Z,99978.34
2018-11-26T07:08:55.518Z,99972.29
2018-11-26T07:09:58.927Z,99980.29
2018-11-26T07:11:02.345Z,99980.63
2018-11-26T07:12:06.257Z,99977.30
2018-11-26T07:13:09.742Z,99983.38
2018-11-26T07:14:13.133Z,99982.58
2018-11-26T07:15:18.207Z,99979.83
2018-11-26T07:16:21.741Z,99978.68
2018-11-26T07:17:25.126Z,99977.08
2018-11-26T07:18:28.567Z,99980.06
2018-11-26T07:19:31.923Z,99979.59
2018-11-26T07:20:35.378Z,99977.77
2018-11-26T07:21:38.769Z,99976.73
2018-11-26T07:22:42.275Z,99983.61
2018-11-26T07:23:45.726Z,99982.81
2018-11-26T07:24:49.121Z,99985.10
2018-11-26T07:25:52.553Z,99984.88
2018-11-26T07:26:55.994Z,99987.39
2018-11-26T07:27:59.405Z,99985.30
2018-11-26T07:29:02.853Z,99986.13
2018-11-26T07:30:10.702Z,99991.38
2018-11-26T07:31:14.109Z,99992.06
2018-11-26T07:32:17.537Z,99993.20
2018-11-26T07:33:21.074Z,99992.17
2018-11-26T07:34:24.470Z,100001.00
2018-11-26T07:35:27.870Z,99996.41
2018-11-26T07:36:31.332Z,100005.23
2018-11-26T07:37:34.741Z,100005.23
2018-11-26T07:38:38.161Z,99997.55
2018-11-26T07:39:41.586Z,100008.09
2018-11-26T07:40:45.012Z,100004.77
2018-11-26T07:41:48.584Z,100004.31
2018-11-26T07:43:02.859Z,100005.34
2018-11-26T07:44:08.990Z,100013.26
2018-11-26T07:45:13.571Z,100008.45
2018-11-26T07:46:17.035Z,100013.04
2018-11-26T07:47:20.532Z,100017.52
2018-11-26T07:48:23.996Z,100016.40
2018-11-26T07:49:27.396Z,100015.95
2018-11-26T07:50:30.788Z,100015.83
2018-11-26T07:51:34.200Z,100011.02
2018-11-26T07:52:37.701Z,100018.36
2018-11-26T07:53:41.109Z,100022.95
2018-11-26T07:54:44.505Z,100017.36
2018-11-26T07:55:48.033Z,100018.62
2018-11-26T07:56:51.600Z,100015.07
2018-11-26T07:57:55.008Z,100015.41
2018-11-26T07:58:58.453Z,100018.16
2018-11-26T08:00:01.839Z,100018.39
2018-11-26T08:01:06.066Z,100018.97
2018-11-26T08:02:09.455Z,100024.59
2018-11-26T08:03:12.909Z,100021.27
2018-11-26T08:04:16.329Z,100023.52
2018-11-26T08:05:21.039Z,100029.03
2018-11-26T08:06:24.467Z,100034.07
2018-11-26T08:07:27.862Z,100034.64
2018-11-26T08:08:31.341Z,100023.41
2018-11-26T08:09:34.755Z,100043.47
2018-11-26T08:10:38.172Z,100035.56
2018-11-26T08:11:41.604Z,100034.52
2018-11-26T08:12:46.052Z,100033.48
2018-11-26T08:13:49.481Z,100036.81
2018-11-26T08:14:52.893Z,100037.96
2018-11-26T08:15:56.314Z,100042.43
2018-11-26T08:16:59.695Z,100043.58
2018-11-26T08:18:03.136Z,100038.41
2018-11-26T08:19:06.625Z,100045.61
2018-11-26T08:20:10.645Z,100046.75
2018-11-26T08:21:14.064Z,100043.19
2018-11-26T08:22:17.713Z,100043.66
2018-11-26T08:23:21.257Z,100043.58
2018-11-26T08:24:24.691Z,100044.61
2018-11-26T08:25:28.090Z,100050.70
2018-11-26T08:26:31.499Z,100050.24
2018-11-26T08:27:34.973Z,100049.02
2018-11-26T08:28:38.408Z,100053.27
2018-11-26T08:29:41.829Z,100048.33
2018-11-26T08:30:45.256Z,100053.72
2018-11-26T08:31:48.840Z,100055.80
2018-11-26T08:32:53.632Z,100049.14
2018-11-26T08:33:57.068Z,100053.84
2018-11-26T08:35:00.484Z,100050.75
2018-11-26T08:36:09.218Z,100057.05
2018-11-26T08:37:18.113Z,100059.81
2018-11-26T08:38:24.567Z,100063.36
2018-11-26T08:39:33.125Z,100067.49
2018-11-26T08:40:41.913Z,100066.80
2018-11-26T08:41:50.761Z,100065.42
2018-11-26T08:43:12.008Z,100070.24
2018-11-26T08:44:19.613Z,100067.83
2018-11-26T08:45:28.453Z,100071.73
2018-11-26T08:46:31.887Z,100072.07
2018-11-26T08:47:40.456Z,100074.13
2018-11-26T08:48:53.107Z,100081.89
2018-11-26T08:49:56.503Z,100074.55
2018-11-26T08:51:02.183Z,100077.07
2018-11-26T08:52:05.629Z,100077.98
2018-11-26T08:53:09.177Z,100083.48
2018-11-26T08:54:12.591Z,100083.26
2018-11-26T08:55:16.099Z,100084.41
2018-11-26T08:56:19.663Z,100081.76
2018-11-26T08:57:23.151Z,100091.97
2018-11-26T08:58:26.590Z,100087.38
2018-11-26T08:59:29.999Z,100085.73
2018-11-26T09:00:33.430Z,100090.77
2018-11-26T09:02:10.054Z,100092.16
2018-11-26T09:03:18.968Z,100094.91
2018-11-26T09:04:27.833Z,100093.19
2018-11-26T09:05:40.998Z,100097.70
2018-11-26T09:06:44.735Z,100094.16
2018-11-26T09:07:48.369Z,100097.03
2018-11-26T09:08:51.846Z,100095.23
2018-11-26T09:09:55.290Z,100100.73
2018-11-26T09:10:59.062Z,100099.02
2018-11-26T09:12:02.539Z,100095.70
2018-11-26T09:13:05.981Z,100098.57
2018-11-26T09:14:09.379Z,100101.55
2018-11-26T09:15:12.816Z,100105.34
2018-11-26T09:16:16.337Z,100103.16
2018-11-26T09:17:20.013Z,100100.98
2018-11-26T09:18:23.625Z,100102.13
2018-11-26T09:19:27.161Z,100113.94
2018-11-26T09:20:30.621Z,100105.22
2018-11-26T09:21:34.109Z,100113.25
2018-11-26T09:22:37.570Z,100109.92
2018-11-26T09:23:40.995Z,100109.23
2018-11-26T09:24:44.393Z,100110.61
2018-11-26T09:25:47.844Z,100112.89
2018-11-26T09:26:51.306Z,100115.42
2018-11-26T09:27:54.769Z,100123.41
2018-11-26T09:28:58.170Z,100121.80
2018-11-26T09:30:01.587Z,100118.82
2018-11-26T09:31:05.455Z,100121.34
2018-11-26T09:32:08.897Z,100121.34
2018-11-26T09:33:12.591Z,100129.13
2018-11-26T09:34:16.000Z,100126.15
2018-11-26T09:35:19.440Z,100129.23
2018-11-26T09:36:22.868Z,100124.65
2018-11-26T09:37:26.360Z,100128.55
2018-11-26T09:38:29.802Z,100124.75
2018-11-26T09:39:33.206Z,100127.17
2018-11-26T09:40:36.618Z,100125.45
2018-11-26T09:41:40.498Z,100125.92
2018-11-26T09:42:44.002Z,100128.80
2018-11-26T09:43:47.524Z,100126.16
2018-11-26T09:44:50.985Z,100134.47
2018-11-26T09:45:54.593Z,100125.30
2018-11-26T09:46:58.057Z,100124.84
2018-11-26T09:48:01.508Z,100126.45
2018-11-26T09:49:05.044Z,100127.48
2018-11-26T09:50:15.475Z,100131.20
2018-11-26T09:51:18.943Z,100126.49
2018-11-26T09:52:22.363Z,100128.33
2018-11-26T09:53:25.763Z,100131.42
2018-11-26T09:54:29.185Z,100125.92
2018-11-26T09:55:32.602Z,100128.33
2018-11-26T09:56:36.013Z,100133.38
2018-11-26T09:57:39.558Z,100132.00
2018-11-26T09:58:43.023Z,100127.64
2018-11-26T09:59:46.465Z,100139.23
2018-11-26T10:00:49.894Z,100128.06
2018-11-26T10:01:53.391Z,100130.81
2018-11-26T10:02:56.800Z,100136.89
2018-11-26T10:04:00.214Z,100139.98
2018-11-26T10:05:04.167Z,100132.88
2018-11-26T10:06:07.590Z,100136.54
2018-11-26T10:07:11.021Z,100139.06
2018-11-26T10:08:14.403Z,100137.22
2018-11-26T10:09:17.837Z,100136.41
2018-11-26T10:10:21.331Z,100140.89
2018-11-26T10:11:24.796Z,100142.83
2018-11-26T10:12:28.201Z,100139.28
2018-11-26T10:13:31.618Z,100147.30
2018-11-26T10:14:35.090Z,100143.82
2018-11-26T10:15:38.481Z,100142.22
2018-11-26T10:16:41.892Z,100142.32
2018-11-26T10:17:45.369Z,100138.19
2018-11-26T10:18:48.808Z,100140.82
2018-11-26T10:19:52.280Z,100133.71
2018-11-26T10:20:55.701Z,100136.23
2018-11-26T10:21:59.082Z,100142.53
2018-11-26T10:23:02.561Z,100141.63
2018-11-26T10:24:06.188Z,100138.09
2018-11-26T10:25:12.266Z,100142.94
2018-11-26T10:26:15.727Z,100139.74
2018-11-26T10:27:19.141Z,100134.70
2018-11-26T10:28:22.576Z,100140.33
2018-11-26T10:29:26.007Z,100139.75
2018-11-26T10:30:29.533Z,100139.75
2018-11-26T10:31:32.993Z,100140.22
2018-11-26T10:32:36.353Z,100135.67
2018-11-26T10:33:39.801Z,100140.03
2018-11-26T10:34:43.287Z,100139.45
2018-11-26T10:35:46.788Z,100138.88
2018-11-26T10:36:50.489Z,100143.81
2018-11-26T10:37:53.931Z,100138.88
2018-11-26T10:38:57.364Z,100139.80
2018-11-26T10:40:00.790Z,100141.75
2018-11-26T10:41:04.237Z,100137.92
2018-11-26T10:42:07.789Z,100137.39
2018-11-26T10:43:11.684Z,100132.19
2018-11-26T10:44:14.837Z,100126.69
2018-11-26T10:45:19.585Z,100138.61
2018-11-26T10:46:23.146Z,100135.39
2018-11-26T10:47:26.592Z,100131.95
2018-11-26T10:48:30.065Z,100136.08
2018-11-26T10:49:33.476Z,100133.66
2018-11-26T10:50:36.890Z,100134.58
2018-11-26T10:51:40.382Z,100139.62
2018-11-26T10:52:48.202Z,100138.81
2018-11-26T10:53:51.743Z,100138.31
2018-11-26T10:54:55.140Z,100137.28
2018-11-26T10:55:58.611Z,100133.49
2018-11-26T10:57:02.018Z,100140.61
2018-11-26T10:58:06.260Z,100137.05
2018-11-26T10:59:09.803Z,100139.46
2018-11-26T11:00:20.419Z,100137.98
2018-11-26T11:01:29.302Z,100139.51
2018-11-26T11:02:37.982Z,100141.01
2018-11-26T11:03:41.615Z,100140.90
2018-11-26T11:04:47.679Z,100147.02
2018-11-26T11:05:48.706Z,100138.42
2018-11-26T11:06:55.860Z,100144.96
2018-11-26T11:07:55.573Z,100145.20
2018-11-26T11:08:59.023Z,100140.72
2018-11-26T11:10:02.426Z,100139.58
2018-11-26T11:11:06.018Z,100139.58
2018-11-26T11:12:09.493Z,100145.89
2018-11-26T11:13:13.009Z,100143.02
2018-11-26T11:14:16.469Z,100141.87
2018-11-26T11:15:19.980Z,100141.06
2018-11-26T11:16:23.735Z,100147.14
2018-11-26T11:17:27.234Z,100151.27
2018-11-26T11:18:30.682Z,100148.29
2018-11-26T11:19:34.138Z,100149.44
2018-11-26T11:20:37.827Z,100148.40
2018-11-26T11:21:41.272Z,100149.85
2018-11-26T11:22:44.772Z,100143.66
2018-11-26T11:23:48.298Z,100148.92
2018-11-26T11:24:51.814Z,100150.53
2018-11-26T11:25:55.618Z,100149.27
2018-11-26T11:26:59.085Z,100149.61
2018-11-26T11:28:02.546Z,100150.52
2018-11-26T11:29:06.417Z,100151.66
2018-11-26T11:30:20.682Z,100149.25
2018-11-26T11:31:24.134Z,100150.94
2018-11-26T11:32:27.544Z,100146.81
2018-11-26T11:33:31.015Z,100148.91
2018-11-26T11:34:34.563Z,100151.22
2018-11-26T11:35:37.972Z,100151.68
2018-11-26T11:36:41.470Z,100149.73
2018-11-26T11:37:46.489Z,100145.60
2018-11-26T11:38:49.950Z,100144.11
2018-11-26T11:39:53.380Z,100149.85
2018-11-26T11:40:56.884Z,100147.33
2018-11-26T11:42:00.335Z,100153.64
2018-11-26T11:43:03.843Z,100146.87
2018-11-26T11:44:07.265Z,100149.85
2018-11-26T11:45:11.845Z,100144.11
2018-11-26T11:46:15.256Z,100145.83
2018-11-26T11:47:19.308Z,100152.48
2018-11-26T11:48:22.892Z,100149.27
2018-11-26T11:49:27.151Z,100149.27
2018-11-26T11:50:29.777Z,100149.95
2018-11-26T11:51:33.251Z,100148.11
2018-11-26T11:52:36.715Z,100143.98
2018-11-26T11:53:40.104Z,100140.20
2018-11-26T11:54:43.510Z,100148.59
2018-11-26T11:55:47.120Z,100141.59
2018-11-26T11:56:50.841Z,100143.02
2018-11-26T11:57:54.428Z,100144.28
2018-11-26T11:58:57.905Z,100140.84
2018-11-26T12:00:01.358Z,100147.84
2018-11-26T12:01:04.866Z,100141.45
2018-11-26T12:02:16.034Z,100141.92
2018-11-26T12:03:17.660Z,100146.73
2018-11-26T12:04:21.095Z,100144.11
2018-11-26T12:05:24.759Z,100140.55
2018-11-26T12:06:28.275Z,100137.91
2018-11-26T12:07:31.695Z,100137.00
2018-11-26T12:08:35.096Z,100144.38
2018-11-26T12:09:38.520Z,100141.36
2018-11-26T12:10:42.038Z,100142.84
2018-11-26T12:11:45.482Z,100139.86
2018-11-26T12:12:48.964Z,100143.77
2018-11-26T12:13:53.158Z,100142.62
2018-11-26T12:14:56.625Z,100143.77
2018-11-26T12:16:00.102Z,100144.45
2018-11-26T12:17:03.524Z,100147.44
2018-11-26T12:18:07.672Z,100143.76
2018-11-26T12:19:11.101Z,100146.28
2018-11-26T12:20:15.270Z,100141.45
2018-11-26T12:21:18.697Z,100143.95
2018-11-26T12:22:22.103Z,100144.06
2018-11-26T12:23:25.639Z,100141.65